sensor_id;sensor_type;location;lat;lon;timestamp;pressure;altitude;pressure_sealevel;temperature;humidity
64298;BME280;50639;53.270;7.956;2023-02-23T00:00:08;101373.22;;;9.87;100.00
64298;BME280;50639;53.270;7.956;2023-02-23T00:03:00;101466.78;;;9.90;100.00
64298;BME280;50639;53.270;7.956;2023-02-23T00:05:31;101318.25;;;9.83;100.00
64298;BME280;50639;53.270;7.956;2023-02-23T00:07:59;101364.53;;;9.85;100.00
64298;BME280;50639;53.270;7.956;2023-02-23T00:10:26;101430.00;;;9.90;100.00
64298;BME280;50639;53.270;7.956;2023-02-23T00:12:56;101306.28;;;9.85;100.00
64298;BME280;50639;53.270;7.956;2023-02-23T00:15:24;101363.91;;;9.89;100.00
64298;BME280;50639;53.270;7.956;2023-02-23T00:17:54;101237.47;;;9.84;100.00
64298;BME280;50639;53.270;7.956;2023-02-23T00:20:22;101327.31;;;9.88;100.00
64298;BME280;50639;53.270;7.956;2023-02-23T00:22:52;101344.06;;;9.90;100.00
64298;BME280;50639;53.270;7.956;2023-02-23T00:25:18;101416.78;;;9.95;100.00
64298;BME280;50639;53.270;7.956;2023-02-23T00:27:43;101387.25;;;9.95;100.00
64298;BME280;50639;53.270;7.956;2023-02-23T00:30:14;101364.91;;;9.95;100.00
64298;BME280;50639;53.270;7.956;2023-02-23T00:32:40;101414.72;;;9.97;100.00
64298;BME280;50639;53.270;7.956;2023-02-23T00:35:06;101405.63;;;9.98;100.00
64298;BME280;50639;53.270;7.956;2023-02-23T00:37:46;101371.75;;;9.97;100.00
64298;BME280;50639;53.270;7.956;2023-02-23T00:40:16;101285.38;;;9.94;100.00
64298;BME280;50639;53.270;7.956;2023-02-23T00:42:43;101288.03;;;9.94;100.00
64298;BME280;50639;53.270;7.956;2023-02-23T00:45:11;101268.44;;;9.93;100.00
64298;BME280;50639;53.270;7.956;2023-02-23T00:47:37;101115.59;;;9.85;100.00
64298;BME280;50639;53.270;7.956;2023-02-23T00:50:04;101112.91;;;9.85;100.00
64298;BME280;50639;53.270;7.956;2023-02-23T00:52:30;101203.56;;;9.90;100.00
64298;BME280;50639;53.270;7.956;2023-02-23T00:54:56;101136.63;;;9.88;100.00
64298;BME280;50639;53.270;7.956;2023-02-23T00:57:22;101045.78;;;9.85;100.00
64298;BME280;50639;53.270;7.956;2023-02-23T00:59:48;101038.75;;;9.84;100.00
64298;BME280;50639;53.270;7.956;2023-02-23T01:02:14;101060.84;;;9.86;100.00
64298;BME280;50639;53.270;7.956;2023-02-23T01:04:40;100954.53;;;9.79;100.00
64298;BME280;50639;53.270;7.956;2023-02-23T01:07:05;100981.75;;;9.82;100.00
64298;BME280;50639;53.270;7.956;2023-02-23T01:09:31;101014.56;;;9.84;100.00
64298;BME280;50639;53.270;7.956;2023-02-23T01:11:57;101049.06;;;9.87;100.00
64298;BME280;50639;53.270;7.956;2023-02-23T01:14:26;100902.66;;;9.78;100.00
64298;BME280;50639;53.270;7.956;2023-02-23T01:16:52;100885.53;;;9.79;100.00
64298;BME280;50639;53.270;7.956;2023-02-23T01:19:19;100914.00;;;9.80;100.00
64298;BME280;50639;53.270;7.956;2023-02-23T01:21:47;100890.91;;;9.79;100.00
64298;BME280;50639;53.270;7.956;2023-02-23T01:24:13;100832.25;;;9.76;100.00
64298;BME280;50639;53.270;7.956;2023-02-23T01:26:43;100709.06;;;9.68;100.00
64298;BME280;50639;53.270;7.956;2023-02-23T01:29:12;100828.97;;;9.74;100.00
64298;BME280;50639;53.270;7.956;2023-02-23T01:31:40;100938.19;;;9.80;100.00
64298;BME280;50639;53.270;7.956;2023-02-23T01:34:06;100683.28;;;9.67;100.00
64298;BME280;50639;53.270;7.956;2023-02-23T01:36:34;100789.16;;;9.71;100.00
64298;BME280;50639;53.270;7.956;2023-02-23T01:39:00;100700.66;;;9.65;100.00
64298;BME280;50639;53.270;7.956;2023-02-23T01:41:27;100814.97;;;9.72;100.00
64298;BME280;50639;53.270;7.956;2023-02-23T01:46:33;100589.00;;;9.57;100.00
64298;BME280;50639;53.270;7.956;2023-02-23T01:48:59;100672.59;;;9.61;100.00
64298;BME280;50639;53.270;7.956;2023-02-23T01:51:28;100547.38;;;9.55;100.00
64298;BME280;50639;53.270;7.956;2023-02-23T01:54:20;100486.44;;;9.55;100.00
64298;BME280;50639;53.270;7.956;2023-02-23T01:56:50;100427.28;;;9.50;100.00
64298;BME280;50639;53.270;7.956;2023-02-23T01:59:35;100470.47;;;9.49;100.00
64298;BME280;50639;53.270;7.956;2023-02-23T02:02:03;100458.91;;;9.48;100.00
64298;BME280;50639;53.270;7.956;2023-02-23T02:04:30;100451.88;;;9.47;100.00
64298;BME280;50639;53.270;7.956;2023-02-23T02:07:03;100501.84;;;9.48;100.00
64298;BME280;50639;53.270;7.956;2023-02-23T02:09:29;100502.88;;;9.47;100.00
64298;BME280;50639;53.270;7.956;2023-02-23T02:12:02;100643.75;;;9.56;100.00
64298;BME280;50639;53.270;7.956;2023-02-23T02:14:33;100531.94;;;9.50;100.00
64298;BME280;50639;53.270;7.956;2023-02-23T02:17:08;100553.66;;;9.49;100.00
64298;BME280;50639;53.270;7.956;2023-02-23T02:22:50;100544.41;;;9.45;100.00
64298;BME280;50639;53.270;7.956;2023-02-23T02:31:09;100632.38;;;9.43;100.00
64298;BME280;50639;53.270;7.956;2023-02-23T02:47:43;100740.31;;;9.45;100.00
64298;BME280;50639;53.270;7.956;2023-02-23T02:50:36;100726.47;;;9.41;100.00
64298;BME280;50639;53.270;7.956;2023-02-23T02:53:08;100838.31;;;9.47;100.00
64298;BME280;50639;53.270;7.956;2023-02-23T02:55:37;100847.41;;;9.46;100.00
64298;BME280;50639;53.270;7.956;2023-02-23T02:58:05;100923.75;;;9.50;100.00
64298;BME280;50639;53.270;7.956;2023-02-23T03:03:39;100962.97;;;9.51;100.00
64298;BME280;50639;53.270;7.956;2023-02-23T03:06:35;100896.53;;;9.47;100.00
64298;BME280;50639;53.270;7.956;2023-02-23T03:09:32;100774.19;;;9.39;100.00
64298;BME280;50639;53.270;7.956;2023-02-23T03:15:25;100730.75;;;9.31;100.00
64298;BME280;50639;53.270;7.956;2023-02-23T03:18:34;100803.97;;;9.31;100.00
64298;BME280;50639;53.270;7.956;2023-02-23T03:21:27;100847.72;;;9.32;100.00
64298;BME280;50639;53.270;7.956;2023-02-23T03:24:32;100844.69;;;9.28;100.00
64298;BME280;50639;53.270;7.956;2023-02-23T03:27:30;100820.94;;;9.25;100.00
64298;BME280;50639;53.270;7.956;2023-02-23T03:30:46;100855.81;;;9.25;100.00
64298;BME280;50639;53.270;7.956;2023-02-23T03:36:25;101127.78;;;9.37;100.00
64298;BME280;50639;53.270;7.956;2023-02-23T03:39:13;101182.91;;;9.40;100.00
64298;BME280;50639;53.270;7.956;2023-02-23T03:42:03;101190.13;;;9.39;100.00
64298;BME280;50639;53.270;7.956;2023-02-23T03:44:51;101140.81;;;9.34;100.00
64298;BME280;50639;53.270;7.956;2023-02-23T03:47:39;101276.44;;;9.36;100.00
64298;BME280;50639;53.270;7.956;2023-02-23T03:50:32;101383.34;;;9.39;100.00
64298;BME280;50639;53.270;7.956;2023-02-23T03:53:23;101403.19;;;9.38;100.00
64298;BME280;50639;53.270;7.956;2023-02-23T03:56:13;101348.47;;;9.33;100.00
64298;BME280;50639;53.270;7.956;2023-02-23T03:59:01;101396.56;;;9.34;100.00
64298;BME280;50639;53.270;7.956;2023-02-23T04:01:46;101285.09;;;9.25;100.00
64298;BME280;50639;53.270;7.956;2023-02-23T04:04:32;101304.91;;;9.24;100.00
64298;BME280;50639;53.270;7.956;2023-02-23T04:07:18;101421.75;;;9.27;100.00
64298;BME280;50639;53.270;7.956;2023-02-23T04:10:03;101480.56;;;9.28;100.00
64298;BME280;50639;53.270;7.956;2023-02-23T04:13:27;101439.69;;;9.26;100.00
64298;BME280;50639;53.270;7.956;2023-02-23T04:16:01;101489.84;;;9.25;100.00
64298;BME280;50639;53.270;7.956;2023-02-23T04:18:30;101489.00;;;9.25;100.00
64298;BME280;50639;53.270;7.956;2023-02-23T04:20:56;101569.97;;;9.29;100.00
64298;BME280;50639;53.270;7.956;2023-02-23T04:23:23;101456.19;;;9.23;100.00
64298;BME280;50639;53.270;7.956;2023-02-23T04:25:49;101543.31;;;9.27;100.00
64298;BME280;50639;53.270;7.956;2023-02-23T04:28:15;101528.03;;;9.27;100.00
64298;BME280;50639;53.270;7.956;2023-02-23T04:30:41;101525.34;;;9.27;100.00
64298;BME280;50639;53.270;7.956;2023-02-23T04:33:08;101526.19;;;9.28;100.00
64298;BME280;50639;53.270;7.956;2023-02-23T04:35:33;101506.78;;;9.26;100.00
64298;BME280;50639;53.270;7.956;2023-02-23T04:38:00;101482.63;;;9.26;100.00
64298;BME280;50639;53.270;7.956;2023-02-23T04:40:25;101384.16;;;9.20;100.00
64298;BME280;50639;53.270;7.956;2023-02-23T04:42:51;101359.41;;;9.18;100.00
64298;BME280;50639;53.270;7.956;2023-02-23T04:45:17;101427.94;;;9.20;100.00
64298;BME280;50639;53.270;7.956;2023-02-23T04:47:43;101403.97;;;9.19;100.00
64298;BME280;50639;53.270;7.956;2023-02-23T04:50:10;101403.16;;;9.18;100.00
64298;BME280;50639;53.270;7.956;2023-02-23T04:52:36;101537.31;;;9.25;100.00
64298;BME280;50639;53.270;7.956;2023-02-23T04:55:07;101554.25;;;9.25;100.00
64298;BME280;50639;53.270;7.956;2023-02-23T04:57:33;101524.50;;;9.27;100.00
64298;BME280;50639;53.270;7.956;2023-02-23T04:59:59;101568.28;;;9.27;100.00
64298;BME280;50639;53.270;7.956;2023-02-23T05:02:24;101480.34;;;9.23;100.00
64298;BME280;50639;53.270;7.956;2023-02-23T05:04:50;101397.78;;;9.18;100.00
64298;BME280;50639;53.270;7.956;2023-02-23T05:07:16;101518.72;;;9.23;100.00
64298;BME280;50639;53.270;7.956;2023-02-23T05:09:41;101501.81;;;9.23;100.00
64298;BME280;50639;53.270;7.956;2023-02-23T05:12:07;101564.13;;;9.25;100.00
64298;BME280;50639;53.270;7.956;2023-02-23T05:14:33;101614.09;;;9.26;100.00
64298;BME280;50639;53.270;7.956;2023-02-23T05:16:58;101497.69;;;9.20;100.00
64298;BME280;50639;53.270;7.956;2023-02-23T05:19:24;101582.28;;;9.23;100.00
64298;BME280;50639;53.270;7.956;2023-02-23T05:21:50;101632.28;;;9.24;100.00
64298;BME280;50639;53.270;7.956;2023-02-23T05:24:16;101496.44;;;9.16;100.00
64298;BME280;50639;53.270;7.956;2023-02-23T05:26:42;101622.75;;;9.21;100.00
64298;BME280;50639;53.270;7.956;2023-02-23T05:29:09;101625.22;;;9.23;100.00
64298;BME280;50639;53.270;7.956;2023-02-23T05:31:34;101532.75;;;9.19;100.00
64298;BME280;50639;53.270;7.956;2023-02-23T05:34:00;101351.16;;;9.06;100.00
64298;BME280;50639;53.270;7.956;2023-02-23T05:36:25;101535.22;;;9.14;100.00
64298;BME280;50639;53.270;7.956;2023-02-23T05:38:51;101617.81;;;9.18;100.00
64298;BME280;50639;53.270;7.956;2023-02-23T05:41:18;101550.91;;;9.17;100.00
64298;BME280;50639;53.270;7.956;2023-02-23T05:43:45;101432.03;;;9.10;100.00
64298;BME280;50639;53.270;7.956;2023-02-23T05:46:16;101488.16;;;9.11;100.00
64298;BME280;50639;53.270;7.956;2023-02-23T05:48:42;101456.16;;;9.10;100.00
64298;BME280;50639;53.270;7.956;2023-02-23T05:51:10;101475.78;;;9.10;100.00
64298;BME280;50639;53.270;7.956;2023-02-23T05:53:37;101483.63;;;9.12;100.00
64298;BME280;50639;53.270;7.956;2023-02-23T05:56:03;101559.16;;;9.15;100.00
64298;BME280;50639;53.270;7.956;2023-02-23T05:58:29;101477.22;;;9.13;100.00
64298;BME280;50639;53.270;7.956;2023-02-23T06:00:55;101471.84;;;9.13;100.00
64298;BME280;50639;53.270;7.956;2023-02-23T06:03:21;101303.66;;;9.07;100.00
64298;BME280;50639;53.270;7.956;2023-02-23T06:05:54;101286.56;;;9.08;100.00
64298;BME280;50639;53.270;7.956;2023-02-23T06:08:21;101150.78;;;9.00;100.00
64298;BME280;50639;53.270;7.956;2023-02-23T06:10:46;101221.56;;;9.06;100.00
64298;BME280;50639;53.270;7.956;2023-02-23T06:13:13;101255.81;;;9.10;100.00
64298;BME280;50639;53.270;7.956;2023-02-23T06:15:39;101320.19;;;9.17;100.00
64298;BME280;50639;53.270;7.956;2023-02-23T06:18:04;101336.72;;;9.20;100.00
64298;BME280;50639;53.270;7.956;2023-02-23T06:20:30;101121.25;;;9.13;100.00
64298;BME280;50639;53.270;7.956;2023-02-23T06:22:56;101039.78;;;9.08;100.00
64298;BME280;50639;53.270;7.956;2023-02-23T06:25:22;101003.25;;;9.07;100.00
64298;BME280;50639;53.270;7.956;2023-02-23T06:27:48;101029.91;;;9.08;100.00
64298;BME280;50639;53.270;7.956;2023-02-23T06:30:13;101098.19;;;9.12;100.00
64298;BME280;50639;53.270;7.956;2023-02-23T06:32:39;101131.78;;;9.15;100.00
64298;BME280;50639;53.270;7.956;2023-02-23T06:35:08;100945.31;;;9.06;100.00
64298;BME280;50639;53.270;7.956;2023-02-23T06:37:34;101021.63;;;9.10;100.00
64298;BME280;50639;53.270;7.956;2023-02-23T06:40:01;100971.91;;;9.07;100.00
64298;BME280;50639;53.270;7.956;2023-02-23T06:42:27;100946.16;;;9.06;100.00
64298;BME280;50639;53.270;7.956;2023-02-23T06:44:52;101025.94;;;9.11;100.00
64298;BME280;50639;53.270;7.956;2023-02-23T06:47:18;101101.66;;;9.13;100.00
64298;BME280;50639;53.270;7.956;2023-02-23T06:49:43;101089.06;;;9.13;100.00
64298;BME280;50639;53.270;7.956;2023-02-23T06:52:09;101165.41;;;9.17;100.00
64298;BME280;50639;53.270;7.956;2023-02-23T06:54:34;101238.06;;;9.22;100.00
64298;BME280;50639;53.270;7.956;2023-02-23T06:57:02;100972.91;;;9.13;100.00
64298;BME280;50639;53.270;7.956;2023-02-23T06:59:27;101020.16;;;9.14;100.00
64298;BME280;50639;53.270;7.956;2023-02-23T07:01:53;100955.59;;;9.09;100.00
64298;BME280;50639;53.270;7.956;2023-02-23T07:04:18;101004.47;;;9.11;100.00
64298;BME280;50639;53.270;7.956;2023-02-23T07:06:43;101108.47;;;9.15;100.00
64298;BME280;50639;53.270;7.956;2023-02-23T07:09:09;101013.34;;;9.11;100.00
64298;BME280;50639;53.270;7.956;2023-02-23T07:11:34;100933.53;;;9.07;100.00
64298;BME280;50639;53.270;7.956;2023-02-23T07:14:00;101003.88;;;9.09;100.00
64298;BME280;50639;53.270;7.956;2023-02-23T07:16:29;100859.28;;;9.01;100.00
64298;BME280;50639;53.270;7.956;2023-02-23T07:18:54;100943.66;;;9.05;100.00
64298;BME280;50639;53.270;7.956;2023-02-23T07:21:20;101071.53;;;9.11;100.00
64298;BME280;50639;53.270;7.956;2023-02-23T07:23:46;100898.50;;;9.02;100.00
64298;BME280;50639;53.270;7.956;2023-02-23T07:26:15;100684.53;;;8.86;100.00
64298;BME280;50639;53.270;7.956;2023-02-23T07:28:42;100905.75;;;8.95;100.00
64298;BME280;50639;53.270;7.956;2023-02-23T07:31:07;101014.84;;;9.01;100.00
64298;BME280;50639;53.270;7.956;2023-02-23T07:33:33;100946.78;;;9.02;100.00
64298;BME280;50639;53.270;7.956;2023-02-23T07:35:59;100915.00;;;8.99;100.00
64298;BME280;50639;53.270;7.956;2023-02-23T07:38:25;101031.13;;;9.06;100.00
64298;BME280;50639;53.270;7.956;2023-02-23T07:40:51;101034.66;;;9.06;100.00
64298;BME280;50639;53.270;7.956;2023-02-23T07:43:16;101206.50;;;9.18;100.00
64298;BME280;50639;53.270;7.956;2023-02-23T07:45:42;101076.72;;;9.12;100.00
64298;BME280;50639;53.270;7.956;2023-02-23T07:48:08;101250.44;;;9.23;100.00
64298;BME280;50639;53.270;7.956;2023-02-23T07:50:34;101211.22;;;9.22;100.00
64298;BME280;50639;53.270;7.956;2023-02-23T07:53:00;101097.94;;;9.14;100.00
64298;BME280;50639;53.270;7.956;2023-02-23T07:55:25;101231.25;;;9.20;100.00
64298;BME280;50639;53.270;7.956;2023-02-23T07:57:51;100970.88;;;9.08;100.00
64298;BME280;50639;53.270;7.956;2023-02-23T08:00:17;100993.59;;;9.06;100.00
64298;BME280;50639;53.270;7.956;2023-02-23T08:02:42;100999.16;;;9.04;100.00
64298;BME280;50639;53.270;7.956;2023-02-23T08:05:08;101050.53;;;9.01;100.00
64298;BME280;50639;53.270;7.956;2023-02-23T08:07:34;100986.81;;;8.97;100.00
64298;BME280;50639;53.270;7.956;2023-02-23T08:09:59;101197.22;;;9.07;100.00
64298;BME280;50639;53.270;7.956;2023-02-23T08:12:25;100849.53;;;8.82;100.00
64298;BME280;50639;53.270;7.956;2023-02-23T08:14:50;100839.63;;;8.82;100.00
64298;BME280;50639;53.270;7.956;2023-02-23T08:17:17;100691.19;;;8.77;100.00
64298;BME280;50639;53.270;7.956;2023-02-23T08:19:43;100979.38;;;8.92;100.00
64298;BME280;50639;53.270;7.956;2023-02-23T08:22:08;100996.06;;;9.01;100.00
64298;BME280;50639;53.270;7.956;2023-02-23T08:24:34;101016.28;;;9.03;100.00
64298;BME280;50639;53.270;7.956;2023-02-23T08:27:00;100879.53;;;8.97;100.00
64298;BME280;50639;53.270;7.956;2023-02-23T08:29:26;100632.16;;;8.83;100.00
64298;BME280;50639;53.270;7.956;2023-02-23T08:31:51;100603.56;;;8.77;100.00
64298;BME280;50639;53.270;7.956;2023-02-23T08:34:17;100554.03;;;8.62;100.00
64298;BME280;50639;53.270;7.956;2023-02-23T08:36:43;100859.41;;;8.88;100.00
64298;BME280;50639;53.270;7.956;2023-02-23T08:39:10;100919.16;;;8.95;100.00
64298;BME280;50639;53.270;7.956;2023-02-23T08:41:37;100810.69;;;8.91;100.00
64298;BME280;50639;53.270;7.956;2023-02-23T08:44:02;100855.03;;;8.93;100.00
64298;BME280;50639;53.270;7.956;2023-02-23T08:46:28;100852.56;;;8.92;100.00
64298;BME280;50639;53.270;7.956;2023-02-23T08:48:55;100735.28;;;8.81;100.00
64298;BME280;50639;53.270;7.956;2023-02-23T08:51:20;100736.13;;;8.81;100.00
64298;BME280;50639;53.270;7.956;2023-02-23T08:53:46;100669.16;;;8.75;100.00
64298;BME280;50639;53.270;7.956;2023-02-23T08:56:12;100696.41;;;8.72;100.00
64298;BME280;50639;53.270;7.956;2023-02-23T08:58:37;100680.31;;;8.72;100.00
64298;BME280;50639;53.270;7.956;2023-02-23T09:01:04;100774.56;;;8.69;100.00
64298;BME280;50639;53.270;7.956;2023-02-23T09:03:30;100731.66;;;8.69;100.00
64298;BME280;50639;53.270;7.956;2023-02-23T09:05:57;100799.88;;;8.73;100.00
64298;BME280;50639;53.270;7.956;2023-02-23T09:08:23;100903.56;;;8.79;100.00
64298;BME280;50639;53.270;7.956;2023-02-23T09:10:48;100717.84;;;8.72;100.00
64298;BME280;50639;53.270;7.956;2023-02-23T09:13:14;100876.75;;;8.79;100.00
64298;BME280;50639;53.270;7.956;2023-02-23T09:15:40;100792.03;;;8.78;100.00
64298;BME280;50639;53.270;7.956;2023-02-23T09:18:08;100680.13;;;8.67;100.00
64298;BME280;50639;53.270;7.956;2023-02-23T09:20:35;100599.13;;;8.65;100.00
64298;BME280;50639;53.270;7.956;2023-02-23T09:23:00;100732.72;;;8.68;100.00
64298;BME280;50639;53.270;7.956;2023-02-23T09:25:26;100542.13;;;8.58;100.00
64298;BME280;50639;53.270;7.956;2023-02-23T09:27:54;100638.91;;;8.68;100.00
64298;BME280;50639;53.270;7.956;2023-02-23T09:30:25;100645.84;;;8.75;100.00
64298;BME280;50639;53.270;7.956;2023-02-23T09:32:52;100535.59;;;8.72;100.00
64298;BME280;50639;53.270;7.956;2023-02-23T09:35:20;100682.50;;;8.81;100.00
64298;BME280;50639;53.270;7.956;2023-02-23T09:37:47;100572.41;;;8.76;100.00
64298;BME280;50639;53.270;7.956;2023-02-23T09:40:16;100343.72;;;8.64;100.00
64298;BME280;50639;53.270;7.956;2023-02-23T09:42:56;100353.38;;;8.54;100.00
64298;BME280;50639;53.270;7.956;2023-02-23T09:45:32;100623.16;;;8.78;100.00
64298;BME280;50639;53.270;7.956;2023-02-23T09:50:29;100369.84;;;8.69;100.00
64298;BME280;50639;53.270;7.956;2023-02-23T09:53:03;100336.75;;;8.63;100.00
64298;BME280;50639;53.270;7.956;2023-02-23T09:55:30;100457.28;;;8.70;100.00
64298;BME280;50639;53.270;7.956;2023-02-23T09:58:03;100721.19;;;8.92;100.00
64298;BME280;50639;53.270;7.956;2023-02-23T10:00:36;100795.72;;;9.08;100.00
64298;BME280;50639;53.270;7.956;2023-02-23T10:03:10;100974.72;;;9.19;100.00
64298;BME280;50639;53.270;7.956;2023-02-23T10:05:41;101163.28;;;9.39;100.00
64298;BME280;50639;53.270;7.956;2023-02-23T10:08:19;101008.25;;;9.41;100.00
64298;BME280;50639;53.270;7.956;2023-02-23T10:10:49;101274.53;;;9.43;100.00
64298;BME280;50639;53.270;7.956;2023-02-23T10:16:21;101486.56;;;9.30;100.00
64298;BME280;50639;53.270;7.956;2023-02-23T10:18:57;101734.28;;;9.37;100.00
64298;BME280;50639;53.270;7.956;2023-02-23T10:21:39;101956.06;;;9.38;100.00
64298;BME280;50639;53.270;7.956;2023-02-23T10:24:28;102128.69;;;9.39;100.00
64298;BME280;50639;53.270;7.956;2023-02-23T10:27:04;102179.97;;;9.29;100.00
64298;BME280;50639;53.270;7.956;2023-02-23T10:29:34;102072.56;;;9.08;100.00
64298;BME280;50639;53.270;7.956;2023-02-23T10:32:06;102136.03;;;9.01;100.00
64298;BME280;50639;53.270;7.956;2023-02-23T10:34:38;102108.94;;;8.96;100.00
64298;BME280;50639;53.270;7.956;2023-02-23T10:37:09;102038.38;;;8.81;100.00
64298;BME280;50639;53.270;7.956;2023-02-23T10:39:35;102003.59;;;8.73;100.00
64298;BME280;50639;53.270;7.956;2023-02-23T10:42:03;101988.91;;;8.69;100.00
64298;BME280;50639;53.270;7.956;2023-02-23T10:44:29;102104.19;;;8.69;100.00
64298;BME280;50639;53.270;7.956;2023-02-23T10:49:25;102166.78;;;8.61;100.00
64298;BME280;50639;53.270;7.956;2023-02-23T10:51:54;102311.69;;;8.68;100.00
64298;BME280;50639;53.270;7.956;2023-02-23T10:54:36;102401.31;;;8.73;100.00
64298;BME280;50639;53.270;7.956;2023-02-23T10:57:03;102780.59;;;8.95;100.00
64298;BME280;50639;53.270;7.956;2023-02-23T10:59:30;102721.59;;;8.95;100.00
64298;BME280;50639;53.270;7.956;2023-02-23T11:01:56;102692.44;;;8.92;100.00
64298;BME280;50639;53.270;7.956;2023-02-23T11:04:29;103286.50;;;9.15;100.00
64298;BME280;50639;53.270;7.956;2023-02-23T11:09:33;103778.53;;;9.35;100.00
64298;BME280;50639;53.270;7.956;2023-02-23T11:12:14;104012.75;;;9.29;100.00
64298;BME280;50639;53.270;7.956;2023-02-23T11:14:47;104811.69;;;9.56;100.00
64298;BME280;50639;53.270;7.956;2023-02-23T11:17:26;105007.88;;;9.67;100.00
64298;BME280;50639;53.270;7.956;2023-02-23T11:20:02;105054.75;;;9.52;100.00
64298;BME280;50639;53.270;7.956;2023-02-23T11:22:31;105586.94;;;9.63;100.00
64298;BME280;50639;53.270;7.956;2023-02-23T11:24:59;105650.38;;;9.53;100.00
64298;BME280;50639;53.270;7.956;2023-02-23T11:27:25;105909.53;;;9.63;100.00
64298;BME280;50639;53.270;7.956;2023-02-23T11:29:55;105629.50;;;9.44;100.00
64298;BME280;50639;53.270;7.956;2023-02-23T11:32:28;105770.94;;;9.45;100.00
64298;BME280;50639;53.270;7.956;2023-02-23T11:37:50;106274.66;;;9.57;100.00
64298;BME280;50639;53.270;7.956;2023-02-23T11:43:05;106897.94;;;9.66;100.00
64298;BME280;50639;53.270;7.956;2023-02-23T11:45:37;106925.84;;;9.63;100.00
64298;BME280;50639;53.270;7.956;2023-02-23T11:48:29;107523.34;;;9.74;100.00
64298;BME280;50639;53.270;7.956;2023-02-23T11:50:59;107678.53;;;9.72;100.00
64298;BME280;50639;53.270;7.956;2023-02-23T11:53:36;107462.44;;;9.50;100.00
64298;BME280;50639;53.270;7.956;2023-02-23T11:56:05;108026.31;;;9.48;100.00
64298;BME280;50639;53.270;7.956;2023-02-23T11:58:49;107942.50;;;9.34;100.00
64298;BME280;50639;53.270;7.956;2023-02-23T12:04:00;108948.72;;;9.56;100.00
64298;BME280;50639;53.270;7.956;2023-02-23T12:06:35;109174.69;;;9.60;100.00
64298;BME280;50639;53.270;7.956;2023-02-23T12:11:36;109345.03;;;9.65;100.00
64298;BME280;50639;53.270;7.956;2023-02-23T12:14:17;109780.97;;;9.79;100.00
64298;BME280;50639;53.270;7.956;2023-02-23T12:16:51;109549.53;;;9.71;100.00
64298;BME280;50639;53.270;7.956;2023-02-23T12:19:24;109402.44;;;9.67;100.00
64298;BME280;50639;53.270;7.956;2023-02-23T12:25:00;109437.34;;;9.75;100.00
64298;BME280;50639;53.270;7.956;2023-02-23T12:27:41;109631.97;;;9.87;100.00
64298;BME280;50639;53.270;7.956;2023-02-23T12:32:48;109658.88;;;9.93;100.00
64298;BME280;50639;53.270;7.956;2023-02-23T12:35:41;109345.75;;;9.82;100.00
64298;BME280;50639;53.270;7.956;2023-02-23T12:41:10;108175.19;;;9.46;100.00
64298;BME280;50639;53.270;7.956;2023-02-23T12:43:45;107943.22;;;9.39;100.00
64298;BME280;50639;53.270;7.956;2023-02-23T12:46:19;108258.34;;;9.53;100.00
64298;BME280;50639;53.270;7.956;2023-02-23T12:49:02;108674.94;;;9.70;100.00
64298;BME280;50639;53.270;7.956;2023-02-23T12:51:39;108850.59;;;9.78;100.00
64298;BME280;50639;53.270;7.956;2023-02-23T12:54:15;109150.91;;;9.92;100.00
64298;BME280;50639;53.270;7.956;2023-02-23T12:56:50;108984.09;;;9.89;100.00
64298;BME280;50639;53.270;7.956;2023-02-23T13:02:27;109501.63;;;10.16;100.00
64298;BME280;50639;53.270;7.956;2023-02-23T13:05:00;109413.69;;;10.12;100.00
64298;BME280;50639;53.270;7.956;2023-02-23T13:07:40;110105.00;;;10.32;100.00
64298;BME280;50639;53.270;7.956;2023-02-23T13:12:44;109394.78;;;10.16;100.00
64298;BME280;50639;53.270;7.956;2023-02-23T13:18:11;108886.88;;;10.04;100.00
64298;BME280;50639;53.270;7.956;2023-02-23T13:20:46;108981.03;;;10.11;100.00
64298;BME280;50639;53.270;7.956;2023-02-23T13:26:02;109019.50;;;10.19;100.00
64298;BME280;50639;53.270;7.956;2023-02-23T13:29:01;109105.59;;;10.25;100.00
64298;BME280;50639;53.270;7.956;2023-02-23T13:31:32;108646.19;;;10.15;100.00
64298;BME280;50639;53.270;7.956;2023-02-23T13:34:01;109121.59;;;10.34;100.00
64298;BME280;50639;53.270;7.956;2023-02-23T13:36:28;108989.66;;;10.32;100.00
64298;BME280;50639;53.270;7.956;2023-02-23T13:50:14;108505.84;;;10.27;100.00
64298;BME280;50639;53.270;7.956;2023-02-23T13:52:43;108732.78;;;10.35;100.00
64298;BME280;50639;53.270;7.956;2023-02-23T13:57:55;108306.69;;;10.24;100.00
64298;BME280;50639;53.270;7.956;2023-02-23T14:00:27;108288.69;;;10.24;100.00
64298;BME280;50639;53.270;7.956;2023-02-23T14:02:53;108128.16;;;10.20;100.00
64298;BME280;50639;53.270;7.956;2023-02-23T14:07:52;107105.84;;;9.86;100.00
64298;BME280;50639;53.270;7.956;2023-02-23T14:13:25;107001.75;;;9.88;100.00
64298;BME280;50639;53.270;7.956;2023-02-23T14:16:13;106897.78;;;9.87;100.00
64298;BME280;50639;53.270;7.956;2023-02-23T14:21:47;105239.13;;;9.42;100.00
64298;BME280;50639;53.270;7.956;2023-02-23T14:24:21;104128.88;;;9.11;100.00
64298;BME280;50639;53.270;7.956;2023-02-23T14:29:29;103931.34;;;9.18;100.00
64298;BME280;50639;53.270;7.956;2023-02-23T14:37:41;102634.13;;;8.78;100.00
64298;BME280;50639;53.270;7.956;2023-02-23T14:40:16;102410.97;;;8.60;100.00
64298;BME280;50639;53.270;7.956;2023-02-23T14:42:50;101710.03;;;8.05;100.00
64298;BME280;50639;53.270;7.956;2023-02-23T14:45:21;101371.44;;;7.80;100.00
64298;BME280;50639;53.270;7.956;2023-02-23T14:47:52;101320.94;;;7.77;100.00
64298;BME280;50639;53.270;7.956;2023-02-23T14:50:28;101200.47;;;7.64;100.00
64298;BME280;50639;53.270;7.956;2023-02-23T14:52:55;101262.44;;;7.68;100.00
64298;BME280;50639;53.270;7.956;2023-02-23T14:55:27;100924.38;;;7.34;100.00